Time;durP1;ratioP1;P1;durP2;ratioP2;P2;SDS_P1;SDS_P2;PMS_P1;PMS_P2;Temp;Humidity;BMP_temperature;BMP_pressure;BME280_temperature;BME280_humidity;BME280_pressure;Samples;Min_cycle;Max_cycle;Signal;HPM_P1;HPM_P2
2023/12/01 00:00:27;;;;;;;14.07;7.83;;;;;;;-146.25;100.00;57403.91;5002860;28;20202;-87
2023/12/01 00:02:57;;;;;;;8.83;6.53;;;;;;;-146.25;100.00;57403.91;5000827;28;20208;-87
2023/12/01 00:05:26;;;;;;;16.57;7.73;;;;;;;-146.25;100.00;57403.91;4999623;28;20197;-87
2023/12/01 00:07:56;;;;;;;8.73;6.20;;;;;;;-146.25;100.00;57403.91;4997355;28;20225;-87
2023/12/01 00:10:27;;;;;;;16.87;7.17;;;;;;;-146.25;100.00;57403.91;4999813;28;20335;-86
2023/12/01 00:12:56;;;;;;;15.50;8.30;;;;;;;-146.25;100.00;57403.91;5000633;28;20197;-86
2023/12/01 00:15:25;;;;;;;17.30;6.63;;;;;;;-146.25;100.00;57403.91;5006092;28;20198;-87
2023/12/01 00:17:58;;;;;;;11.73;6.70;;;;;;;-146.25;100.00;57403.91;5005036;28;20208;-86
2023/12/01 00:20:26;;;;;;;14.00;7.20;;;;;;;-146.25;100.00;57403.91;5004022;28;20265;-86
2023/12/01 00:22:56;;;;;;;10.83;8.23;;;;;;;-146.25;100.00;57403.91;5004960;28;20197;-87
2023/12/01 00:25:27;;;;;;;16.43;8.10;;;;;;;-146.25;100.00;57403.91;5008776;28;20197;-86
2023/12/01 00:27:56;;;;;;;14.50;7.53;;;;;;;-146.25;100.00;57403.91;5010996;28;20232;-88
2023/12/01 00:30:28;;;;;;;14.77;7.87;;;;;;;-146.25;100.00;57403.91;5014002;28;20201;-88
2023/12/01 00:32:57;;;;;;;10.47;6.83;;;;;;;-146.25;100.00;57403.91;5008877;28;20204;-87
2023/12/01 00:35:25;;;;;;;9.80;6.00;;;;;;;-146.25;100.00;57403.91;5004739;28;20212;-87
2023/12/01 00:37:54;;;;;;;12.83;6.67;;;;;;;-146.25;100.00;57403.91;5008266;28;20225;-87
2023/12/01 00:40:22;;;;;;;10.83;7.10;;;;;;;-146.25;100.00;57403.91;5007595;28;20197;-87
2023/12/01 00:42:52;;;;;;;14.77;6.97;;;;;;;-146.25;100.00;57403.91;5020300;28;20240;-86
2023/12/01 00:45:21;;;;;;;14.73;8.10;;;;;;;-146.25;100.00;57403.91;5026397;28;20201;-87
2023/12/01 00:47:50;;;;;;;15.27;7.87;;;;;;;-146.25;100.00;57403.91;5025653;28;20228;-88
2023/12/01 00:50:23;;;;;;;10.27;7.27;;;;;;;-146.25;100.00;57403.91;5022001;28;20268;-86
2023/12/01 00:52:52;;;;;;;13.23;7.83;;;;;;;-146.25;100.00;57403.91;5019879;28;20197;-86
2023/12/01 00:55:21;;;;;;;12.23;7.37;;;;;;;-146.25;100.00;57403.91;5017112;28;20231;-86
2023/12/01 00:57:55;;;;;;;13.77;6.33;;;;;;;-146.25;100.00;57403.91;5018720;28;20197;-86
2023/12/01 01:00:26;;;;;;;12.60;7.70;;;;;;;-146.25;100.00;57403.91;5018780;28;20212;-86
2023/12/01 01:02:57;;;;;;;8.67;5.80;;;;;;;-146.25;100.00;57403.91;5021908;28;20291;-85
2023/12/01 01:05:27;;;;;;;10.23;5.73;;;;;;;-146.25;100.00;57403.91;5025107;28;20204;-87
2023/12/01 01:07:56;;;;;;;9.33;6.20;;;;;;;-146.25;100.00;57403.91;5023023;28;20688;-87
2023/12/01 01:10:26;;;;;;;15.47;6.83;;;;;;;-146.25;100.00;57403.91;5026781;28;20256;-86
2023/12/01 01:12:59;;;;;;;15.77;7.70;;;;;;;-146.25;100.00;57403.91;5024619;28;20219;-87
2023/12/01 01:15:32;;;;;;;14.13;5.37;;;;;;;-146.25;100.00;57403.91;5026158;28;20268;-86
2023/12/01 01:18:00;;;;;;;14.00;8.17;;;;;;;-146.25;100.00;57403.91;5027140;28;20519;-87
2023/12/01 01:20:29;;;;;;;17.03;8.03;;;;;;;-146.25;100.00;57403.91;5022222;28;20207;-87
2023/12/01 01:22:59;;;;;;;13.47;7.27;;;;;;;-146.25;100.00;57403.91;5022122;28;20292;-89
2023/12/01 01:25:28;;;;;;;11.43;6.87;;;;;;;-146.25;100.00;57403.91;5022769;28;20299;-87
2023/12/01 01:28:00;;;;;;;17.57;6.77;;;;;;;-146.25;100.00;57403.91;5022271;28;20236;-88
2023/12/01 01:30:29;;;;;;;11.63;7.07;;;;;;;-146.25;100.00;57403.91;5021648;28;20208;-86
2023/12/01 01:32:58;;;;;;;15.43;7.87;;;;;;;-146.25;100.00;57403.91;5023789;28;20193;-86
2023/12/01 01:35:29;;;;;;;15.37;7.17;;;;;;;-146.25;100.00;57403.91;5023455;28;20263;-87
2023/12/01 01:37:58;;;;;;;11.77;6.10;;;;;;;-146.25;100.00;57403.91;5029932;28;20217;-87
2023/12/01 01:40:27;;;;;;;10.03;6.13;;;;;;;-146.25;100.00;57403.91;5031399;28;20193;-87
2023/12/01 01:42:57;;;;;;;19.20;8.57;;;;;;;-146.25;100.00;57403.91;5025570;28;20665;-87
2023/12/01 01:45:26;;;;;;;7.57;5.83;;;;;;;-146.25;100.00;57403.91;5026584;28;20199;-87
2023/12/01 01:47:54;;;;;;;11.73;7.43;;;;;;;-146.25;100.00;57403.91;5025618;28;20192;-88
2023/12/01 01:50:23;;;;;;;13.17;6.80;;;;;;;-146.25;100.00;57403.91;5026103;28;20246;-86
2023/12/01 01:52:55;;;;;;;11.20;7.47;;;;;;;-146.25;100.00;57403.91;5026652;28;20352;-88
2023/12/01 01:55:24;;;;;;;11.37;7.53;;;;;;;-146.25;100.00;57403.91;5027420;28;20200;-85
2023/12/01 01:57:56;;;;;;;9.07;6.23;;;;;;;-146.25;100.00;57403.91;5028669;28;20197;-87
2023/12/01 02:00:27;;;;;;;13.63;6.67;;;;;;;-146.25;100.00;57403.91;5027588;28;20192;-87
2023/12/01 02:02:56;;;;;;;13.37;7.70;;;;;;;-146.25;100.00;57403.91;5025734;28;20276;-86
2023/12/01 02:05:24;;;;;;;12.13;7.20;;;;;;;-146.25;100.00;57403.91;5024441;28;20197;-88
2023/12/01 02:07:52;;;;;;;12.50;7.57;;;;;;;-146.25;100.00;57403.91;5026274;28;20256;-85
2023/12/01 02:10:22;;;;;;;12.23;7.43;;;;;;;-146.25;100.00;57403.91;5037579;28;20196;-87
2023/12/01 02:12:51;;;;;;;12.10;6.40;;;;;;;-146.25;100.00;57403.91;5037955;28;20177;-87
2023/12/01 02:15:27;;;;;;;12.67;7.40;;;;;;;-146.25;100.00;57403.91;5033190;28;20197;-86
2023/12/01 02:17:56;;;;;;;19.40;8.77;;;;;;;-146.25;100.00;57403.91;5038132;28;20255;-88
2023/12/01 02:20:24;;;;;;;14.43;7.53;;;;;;;-146.25;100.00;57403.91;5032012;28;20205;-87
2023/12/01 02:22:55;;;;;;;16.20;7.87;;;;;;;-146.25;100.00;57403.91;5029687;28;20203;-86
2023/12/01 02:25:23;;;;;;;16.67;8.53;;;;;;;-146.25;100.00;57403.91;5026618;28;20271;-88
2023/12/01 02:27:55;;;;;;;15.63;8.53;;;;;;;-146.25;100.00;57403.91;5025752;28;20203;-87
2023/12/01 02:30:24;;;;;;;13.33;7.93;;;;;;;-146.25;100.00;57403.91;5025145;28;20219;-87
2023/12/01 02:32:52;;;;;;;14.27;8.23;;;;;;;-146.25;100.00;57403.91;5019273;28;20192;-87
2023/12/01 02:35:20;;;;;;;21.90;7.73;;;;;;;-146.25;100.00;57403.91;5019727;28;20204;-86
2023/12/01 02:37:50;;;;;;;17.43;8.30;;;;;;;-146.25;100.00;57403.91;5024107;28;20205;-88
2023/12/01 02:40:24;;;;;;;28.13;11.67;;;;;;;-146.25;100.00;57403.91;5019329;28;20288;-87
2023/12/01 02:42:53;;;;;;;14.77;8.23;;;;;;;-146.25;100.00;57403.91;5017824;28;20279;-86
2023/12/01 02:45:22;;;;;;;14.50;8.43;;;;;;;-146.25;100.00;57403.91;5018770;28;20274;-87
2023/12/01 02:47:52;;;;;;;15.50;7.07;;;;;;;-146.25;100.00;57403.91;5019090;28;20259;-87
2023/12/01 02:50:20;;;;;;;15.57;8.97;;;;;;;-146.25;100.00;57403.91;5017333;28;20220;-89
2023/12/01 02:52:48;;;;;;;11.30;7.63;;;;;;;-146.25;100.00;57403.91;5018713;28;20661;-86
2023/12/01 02:55:17;;;;;;;15.80;8.47;;;;;;;-146.25;100.00;57403.91;5018497;28;20211;-87
2023/12/01 02:57:47;;;;;;;16.47;8.30;;;;;;;-146.25;100.00;57403.91;5018822;28;20219;-88
2023/12/01 03:00:16;;;;;;;14.43;7.57;;;;;;;-146.25;100.00;57403.91;5018795;28;20185;-87
2023/12/01 03:02:46;;;;;;;14.83;7.97;;;;;;;-146.25;100.00;57403.91;5018819;28;20221;-86
2023/12/01 03:05:14;;;;;;;15.87;7.00;;;;;;;-146.25;100.00;57403.91;5022364;28;20252;-87
2023/12/01 03:07:42;;;;;;;12.43;6.83;;;;;;;-146.25;100.00;57403.91;5028198;28;20268;-87
2023/12/01 03:10:11;;;;;;;13.33;7.40;;;;;;;-146.25;100.00;57403.91;5036371;28;20228;-88
2023/12/01 03:12:43;;;;;;;20.13;7.33;;;;;;;-146.25;100.00;57403.91;5021079;28;20201;-88
2023/12/01 03:15:13;;;;;;;10.87;7.43;;;;;;;-146.25;100.00;57403.91;5018621;28;20189;-88
2023/12/01 03:17:44;;;;;;;12.37;7.77;;;;;;;-146.25;100.00;57403.91;5017677;28;20259;-87
2023/12/01 03:20:29;;;;;;;17.30;7.33;;;;;;;-146.25;100.00;57403.91;5018913;28;20680;-87
2023/12/01 03:22:59;;;;;;;14.73;7.50;;;;;;;-146.25;100.00;57403.91;5018290;28;20224;-87
2023/12/01 03:25:28;;;;;;;15.23;6.50;;;;;;;-146.25;100.00;57403.91;5018545;28;20244;-87
2023/12/01 03:27:56;;;;;;;10.80;7.43;;;;;;;-146.25;100.00;57403.91;5023397;28;20196;-88
2023/12/01 03:30:26;;;;;;;11.83;6.33;;;;;;;-146.25;100.00;57403.91;5029483;28;20228;-87
2023/12/01 03:32:56;;;;;;;7.50;5.97;;;;;;;-146.25;100.00;57403.91;5029221;28;20629;-87
2023/12/01 03:35:27;;;;;;;10.77;6.33;;;;;;;-146.25;100.00;57403.91;5030403;28;20264;-87
2023/12/01 03:37:57;;;;;;;12.13;6.33;;;;;;;-146.25;100.00;57403.91;5027772;28;20216;-86
2023/12/01 03:40:25;;;;;;;9.03;5.67;;;;;;;-146.25;100.00;57403.91;5023334;28;20213;-86
2023/12/01 03:42:53;;;;;;;9.00;5.90;;;;;;;-146.25;100.00;57403.91;5029395;28;20779;-87
2023/12/01 03:45:21;;;;;;;10.57;4.97;;;;;;;-146.25;100.00;57403.91;5030973;28;20244;-86
2023/12/01 03:47:52;;;;;;;6.60;4.83;;;;;;;-146.25;100.00;57403.91;5035529;28;20191;-86
2023/12/01 03:50:21;;;;;;;6.40;4.93;;;;;;;-146.25;100.00;57403.91;5035375;28;20228;-86
2023/12/01 03:52:52;;;;;;;11.70;4.90;;;;;;;-146.25;100.00;57403.91;5036613;28;20199;-85
2023/12/01 03:55:21;;;;;;;6.77;4.90;;;;;;;-146.25;100.00;57403.91;5035389;28;20260;-86
2023/12/01 03:57:50;;;;;;;6.23;4.63;;;;;;;-146.25;100.00;57403.91;5035823;28;20193;-86
2023/12/01 04:00:21;;;;;;;10.80;5.90;;;;;;;-146.25;100.00;57403.91;5025978;28;20658;-87
2023/12/01 04:02:52;;;;;;;6.47;4.17;;;;;;;-146.25;100.00;57403.91;5020624;28;20211;-86
2023/12/01 04:05:22;;;;;;;5.37;4.47;;;;;;;-146.25;100.00;57403.91;5018087;28;20196;-87
2023/12/01 04:07:52;;;;;;;8.13;6.00;;;;;;;-146.25;100.00;57403.91;5018348;28;20228;-87
2023/12/01 04:10:21;;;;;;;13.67;5.53;;;;;;;-146.25;100.00;57403.91;5017856;28;20275;-86
2023/12/01 04:12:51;;;;;;;6.47;4.90;;;;;;;-146.25;100.00;57403.91;5017564;28;20322;-86
2023/12/01 04:15:24;;;;;;;8.07;5.00;;;;;;;-146.25;100.00;57403.91;5018353;28;20279;-86
2023/12/01 04:18:21;;;;;;;5.60;3.50;;;;;;;-146.25;100.00;57403.91;5022516;28;20449;-86
2023/12/01 04:20:51;;;;;;;10.30;4.07;;;;;;;-146.25;100.00;57403.91;5016241;28;20304;-87
2023/12/01 04:23:52;;;;;;;8.63;4.30;;;;;;;-146.25;100.00;57403.91;5026191;28;20248;-88
2023/12/01 04:26:31;;;;;;;13.63;6.63;;;;;;;-146.25;100.00;57403.91;5018498;28;20291;-87
2023/12/01 04:29:10;;;;;;;7.73;5.60;;;;;;;-146.25;100.00;57403.91;5021468;28;20230;-88
2023/12/01 04:31:46;;;;;;;6.17;3.80;;;;;;;-146.25;100.00;57403.91;5030216;28;20284;-86
2023/12/01 04:34:26;;;;;;;17.33;6.40;;;;;;;-146.25;100.00;57403.91;5033697;28;20209;-88
2023/12/01 04:36:55;;;;;;;6.60;5.90;;;;;;;-146.25;100.00;57403.91;5032569;28;20279;-86
2023/12/01 04:39:23;;;;;;;11.00;5.30;;;;;;;-146.25;100.00;57403.91;5029115;28;20217;-87
2023/12/01 04:41:55;;;;;;;10.73;6.13;;;;;;;-146.25;100.00;57403.91;5025292;28;20252;-87
2023/12/01 04:44:25;;;;;;;8.83;5.47;;;;;;;-146.25;100.00;57403.91;5019776;28;20193;-87
2023/12/01 04:46:53;;;;;;;5.43;4.70;;;;;;;-146.25;100.00;57403.91;5025253;28;20202;-86
2023/12/01 04:49:24;;;;;;;4.67;4.27;;;;;;;-146.25;100.00;57403.91;5028099;28;20236;-87
2023/12/01 04:51:52;;;;;;;6.47;3.67;;;;;;;-146.25;100.00;57403.91;5024299;28;20219;-88
2023/12/01 04:54:20;;;;;;;7.00;4.33;;;;;;;-146.25;100.00;57403.91;5016582;28;20291;-86
2023/12/01 04:56:49;;;;;;;6.83;4.20;;;;;;;-146.25;100.00;57403.91;5020113;28;20287;-88
2023/12/01 04:59:18;;;;;;;5.87;4.73;;;;;;;-146.25;100.00;57403.91;5016832;28;20200;-87
2023/12/01 05:01:46;;;;;;;6.97;5.00;;;;;;;-146.25;100.00;57403.91;5014575;28;20677;-89
2023/12/01 05:04:14;;;;;;;12.43;6.07;;;;;;;-146.25;100.00;57403.91;5014608;28;20240;-87
2023/12/01 05:06:44;;;;;;;9.83;5.93;;;;;;;-146.25;100.00;57403.91;5015601;28;20200;-87
2023/12/01 05:09:31;;;;;;;10.10;6.43;;;;;;;-146.25;100.00;57403.91;5014914;28;20232;-86
2023/12/01 05:12:05;;;;;;;9.27;6.47;;;;;;;-146.25;100.00;57403.91;5015940;28;20251;-85
2023/12/01 05:14:34;;;;;;;6.20;4.23;;;;;;;-146.25;100.00;57403.91;5018938;28;20205;-87
2023/12/01 05:17:02;;;;;;;8.83;5.67;;;;;;;-146.25;100.00;57403.91;5018130;28;20209;-87
2023/12/01 05:19:32;;;;;;;7.87;6.17;;;;;;;-146.25;100.00;57403.91;5019190;28;20239;-88
2023/12/01 05:22:04;;;;;;;6.67;4.77;;;;;;;-146.25;100.00;57403.91;5017097;28;20262;-86
2023/12/01 05:24:31;;;;;;;7.67;5.83;;;;;;;-146.25;100.00;57403.91;5017064;28;20208;-87
2023/12/01 05:27:07;;;;;;;12.03;5.87;;;;;;;-146.25;100.00;57403.91;5017882;28;20303;-87
2023/12/01 05:29:36;;;;;;;11.30;5.30;;;;;;;-146.25;100.00;57403.91;5018594;28;20223;-87
2023/12/01 05:32:06;;;;;;;10.73;5.27;;;;;;;-146.25;100.00;57403.91;5017970;28;20209;-86
2023/12/01 05:34:36;;;;;;;8.83;5.60;;;;;;;-146.25;100.00;57403.91;5018284;28;20196;-87
2023/12/01 05:37:07;;;;;;;8.17;6.07;;;;;;;-146.25;100.00;57403.91;5016705;28;20596;-88
2023/12/01 05:39:36;;;;;;;8.80;6.63;;;;;;;-146.25;100.00;57403.91;5016324;28;20220;-87
2023/12/01 05:42:05;;;;;;;13.27;5.90;;;;;;;-146.25;100.00;57403.91;5017235;28;20256;-88
2023/12/01 05:44:34;;;;;;;8.67;6.90;;;;;;;-146.25;100.00;57403.91;5018179;28;20207;-88
2023/12/01 05:47:02;;;;;;;13.77;6.67;;;;;;;-146.25;100.00;57403.91;5019200;28;20215;-86
2023/12/01 05:49:30;;;;;;;8.03;6.33;;;;;;;-146.25;100.00;57403.91;5020154;28;20300;-87
2023/12/01 05:51:59;;;;;;;9.50;6.13;;;;;;;-146.25;100.00;57403.91;5027312;28;20243;-87
2023/12/01 05:54:29;;;;;;;7.40;5.53;;;;;;;-146.25;100.00;57403.91;5033553;28;20192;-87
2023/12/01 05:56:57;;;;;;;10.43;5.73;;;;;;;-146.25;100.00;57403.91;5025619;28;20283;-86
2023/12/01 05:59:26;;;;;;;6.43;4.73;;;;;;;-146.25;100.00;57403.91;5017228;28;20257;-89
2023/12/01 06:01:58;;;;;;;8.57;5.43;;;;;;;-146.25;100.00;57403.91;5015952;28;20263;-87
2023/12/01 06:04:27;;;;;;;9.20;5.33;;;;;;;-146.25;100.00;57403.91;5015545;28;20200;-87
2023/12/01 06:06:56;;;;;;;5.60;4.63;;;;;;;-146.25;100.00;57403.91;5015366;28;20208;-88
2023/12/01 06:09:24;;;;;;;9.73;6.13;;;;;;;-146.25;100.00;57403.91;5016203;28;20228;-87
2023/12/01 06:11:55;;;;;;;5.47;4.93;;;;;;;-146.25;100.00;57403.91;5023554;28;20201;-89
2023/12/01 06:14:23;;;;;;;12.00;6.80;;;;;;;-146.25;100.00;57403.91;5016274;28;20197;-86
2023/12/01 06:16:54;;;;;;;7.13;4.83;;;;;;;-146.25;100.00;57403.91;5020352;28;20218;-88
2023/12/01 06:19:24;;;;;;;5.33;4.53;;;;;;;-146.25;100.00;57403.91;5024467;28;20223;-87
2023/12/01 06:21:58;;;;;;;12.03;6.07;;;;;;;-146.25;100.00;57403.91;5021741;28;20367;-85
2023/12/01 06:24:27;;;;;;;7.97;6.40;;;;;;;-146.25;100.00;57403.91;5027089;28;20196;-86
2023/12/01 06:27:00;;;;;;;10.53;5.60;;;;;;;-146.25;100.00;57403.91;5024803;28;20192;-86
2023/12/01 06:29:32;;;;;;;8.27;3.90;;;;;;;-146.25;100.00;57403.91;5026465;28;20658;-86
2023/12/01 06:32:03;;;;;;;5.60;4.73;;;;;;;-146.25;100.00;57403.91;5024446;28;20200;-88
2023/12/01 06:34:38;;;;;;;5.47;4.93;;;;;;;-146.25;100.00;57403.91;5025154;28;20291;-87
2023/12/01 06:37:08;;;;;;;7.03;5.07;;;;;;;-146.25;100.00;57403.91;5028943;28;20250;-87
2023/12/01 06:39:36;;;;;;;15.57;5.77;;;;;;;-146.25;100.00;57403.91;5027123;28;20705;-87
2023/12/01 06:42:13;;;;;;;5.43;4.90;;;;;;;-146.25;100.00;57403.91;5022829;28;20788;-88
2023/12/01 06:44:42;;;;;;;6.00;5.40;;;;;;;-146.25;100.00;57403.91;5022863;28;20283;-87
2023/12/01 06:47:11;;;;;;;11.23;5.50;;;;;;;-146.25;100.00;57403.91;5022432;28;20209;-88
2023/12/01 06:49:42;;;;;;;8.87;5.77;;;;;;;-146.25;100.00;57403.91;5020848;28;20682;-87
2023/12/01 06:52:18;;;;;;;7.53;6.10;;;;;;;-146.25;100.00;57403.91;5020027;28;20284;-87
2023/12/01 06:54:48;;;;;;;16.10;8.20;;;;;;;-146.25;100.00;57403.91;5020468;28;20291;-87
2023/12/01 06:57:20;;;;;;;10.27;7.40;;;;;;;-146.25;100.00;57403.91;5022868;28;20231;-89
2023/12/01 06:59:59;;;;;;;9.80;5.73;;;;;;;-146.25;100.00;57403.91;5022217;28;20201;-87
2023/12/01 07:02:30;;;;;;;14.03;7.43;;;;;;;-146.25;100.00;57403.91;5020645;28;20656;-88
2023/12/01 07:04:58;;;;;;;8.40;4.97;;;;;;;-146.25;100.00;57403.91;5020067;28;20275;-86
2023/12/01 07:07:37;;;;;;;7.53;6.07;;;;;;;;;;5018790;28;20228;-87
2023/12/01 07:10:07;;;;;;;8.03;5.43;;;;;;;-146.25;100.00;57403.91;5019572;28;20239;-86
2023/12/01 07:12:36;;;;;;;10.93;7.20;;;;;;;-146.24;100.00;57403.91;5019424;28;20243;-89
2023/12/01 07:15:11;;;;;;;7.00;6.00;;;;;;;-146.25;100.00;57403.91;5018860;28;20208;-88
2023/12/01 07:17:40;;;;;;;6.53;5.83;;;;;;;-146.25;100.00;57403.91;5020301;28;20216;-88
2023/12/01 07:20:18;;;;;;;11.73;7.17;;;;;;;-146.25;100.00;57403.91;5017751;28;20192;-87
2023/12/01 07:22:47;;;;;;;15.77;8.90;;;;;;;-146.25;100.00;57403.91;5017314;28;20210;-88
2023/12/01 07:25:23;;;;;;;7.70;6.53;;;;;;;-146.25;100.00;57403.91;5019840;28;20200;-87
2023/12/01 07:27:55;;;;;;;14.57;8.07;;;;;;;-146.25;100.00;57403.91;5007799;28;20193;-87
2023/12/01 07:30:23;;;;;;;13.00;8.77;;;;;;;-146.25;100.00;57403.91;4999526;28;20239;-87
2023/12/01 07:32:52;;;;;;;8.63;6.63;;;;;;;-146.25;100.00;57403.91;5004089;28;20206;-87
2023/12/01 07:35:24;;;;;;;10.67;7.93;;;;;;;-146.25;100.00;57403.91;5006413;28;20197;-87
2023/12/01 07:37:53;;;;;;;17.03;9.43;;;;;;;-146.25;100.00;57403.91;5008339;28;20208;-87
2023/12/01 07:40:23;;;;;;;10.83;8.60;;;;;;;-146.25;100.00;57403.91;5006581;28;20200;-87
2023/12/01 07:42:56;;;;;;;13.00;7.83;;;;;;;-146.25;100.00;57403.91;5005575;28;20229;-89
2023/12/01 07:45:31;;;;;;;9.77;7.60;;;;;;;-146.25;100.00;57403.91;5002128;28;20201;-87
2023/12/01 07:47:59;;;;;;;12.90;8.33;;;;;;;-146.25;100.00;57403.91;5005154;28;20259;-88
2023/12/01 07:50:27;;;;;;;9.40;6.07;;;;;;;-146.25;100.00;57403.91;4999049;28;20233;-87
2023/12/01 07:52:55;;;;;;;10.63;8.40;;;;;;;-146.25;100.00;57403.91;4996907;28;20193;-87
2023/12/01 07:55:24;;;;;;;12.73;7.43;;;;;;;-146.25;100.00;57403.91;4998798;28;20204;-88
2023/12/01 07:57:53;;;;;;;15.07;7.47;;;;;;;-146.25;100.00;57403.91;4998340;28;20208;-88
2023/12/01 08:00:21;;;;;;;7.43;6.40;;;;;;;-146.25;100.00;57403.91;4997623;28;20209;-88
2023/12/01 08:02:52;;;;;;;8.00;6.20;;;;;;;-146.25;100.00;57403.91;5001004;28;20264;-87
2023/12/01 08:05:22;;;;;;;8.43;5.87;;;;;;;-146.25;100.00;57403.91;5001236;28;20190;-87
2023/12/01 08:07:55;;;;;;;9.17;6.63;;;;;;;-146.25;100.00;57403.91;4999107;28;20205;-87
2023/12/01 08:10:23;;;;;;;6.33;5.83;;;;;;;-146.25;100.00;57403.91;4998417;28;20228;-86
2023/12/01 08:12:56;;;;;;;7.17;6.03;;;;;;;-146.25;100.00;57403.91;4997309;28;20193;-88
2023/12/01 08:15:24;;;;;;;10.50;5.40;;;;;;;-146.25;100.00;57403.91;4996600;28;20220;-86
2023/12/01 08:17:53;;;;;;;9.27;5.97;;;;;;;-146.25;100.00;57403.91;4996520;28;20659;-87
2023/12/01 08:20:21;;;;;;;10.03;6.37;;;;;;;-146.25;100.00;57403.91;4996234;28;20259;-86
2023/12/01 08:22:50;;;;;;;19.03;5.93;;;;;;;-146.25;100.00;57403.91;4998102;28;20216;-89
2023/12/01 08:25:24;;;;;;;7.70;5.97;;;;;;;-146.25;100.00;57403.91;5008447;28;20205;-87
2023/12/01 08:28:03;;;;;;;8.00;6.07;;;;;;;-146.25;100.00;57403.91;4997170;28;20544;-87
2023/12/01 08:30:32;;;;;;;8.57;6.30;;;;;;;-146.25;100.00;57403.91;4994930;28;20228;-87
2023/12/01 08:33:05;;;;;;;12.57;6.53;;;;;;;-146.25;100.00;57403.91;4996344;28;20611;-87
2023/12/01 08:35:40;;;;;;;9.80;6.23;;;;;;;-146.25;100.00;57403.91;4997151;28;20252;-87
2023/12/01 08:38:10;;;;;;;10.10;7.40;;;;;;;-146.25;100.00;57403.91;5006006;28;20299;-87
2023/12/01 08:40:40;;;;;;;6.73;5.53;;;;;;;-146.25;100.00;57403.91;5014699;28;20201;-87
2023/12/01 08:43:10;;;;;;;8.83;6.07;;;;;;;-146.25;100.00;57403.91;5014393;28;20264;-86
2023/12/01 08:45:38;;;;;;;14.93;7.17;;;;;;;-146.25;100.00;57403.91;4997018;28;20276;-88
2023/12/01 08:48:07;;;;;;;11.17;6.10;;;;;;;-146.25;100.00;57403.91;4996011;28;20268;-88
2023/12/01 08:50:39;;;;;;;7.73;6.37;;;;;;;-146.25;100.00;57403.91;4995491;28;20228;-87
2023/12/01 08:53:08;;;;;;;7.57;6.33;;;;;;;-146.25;100.00;57403.91;4994980;28;20267;-87
2023/12/01 08:55:38;;;;;;;9.10;5.80;;;;;;;-146.25;100.00;57403.91;4996328;28;20306;-87
2023/12/01 08:58:06;;;;;;;9.93;6.07;;;;;;;-146.25;100.00;57403.91;4995806;28;20294;-88
2023/12/01 09:00:40;;;;;;;17.77;9.07;;;;;;;-146.25;100.00;57403.91;5000566;28;20693;-86
2023/12/01 09:03:09;;;;;;;13.80;7.60;;;;;;;-146.25;100.00;57403.91;5012157;28;20216;-86
2023/12/01 09:05:38;;;;;;;13.37;8.93;;;;;;;-146.25;100.00;57403.91;5012336;28;20198;-87
2023/12/01 09:08:05;;;;;;;12.87;7.70;;;;;;;-146.25;100.00;57403.91;5009438;28;20193;-87
2023/12/01 09:10:34;;;;;;;13.93;7.20;;;;;;;-146.25;100.00;57403.91;5002425;28;20241;-87
2023/12/01 09:13:10;;;;;;;8.20;5.87;;;;;;;-146.25;100.00;57403.91;5005220;28;20201;-87
2023/12/01 09:15:47;;;;;;;8.80;5.80;;;;;;;-146.25;100.00;57403.91;5000785;28;20624;-90
2023/12/01 09:18:18;;;;;;;8.07;5.77;;;;;;;-146.25;100.00;57403.91;4999167;28;20634;-88
2023/12/01 09:20:46;;;;;;;9.27;5.20;;;;;;;-146.25;100.00;57403.91;4995101;28;20680;-87
2023/12/01 09:23:16;;;;;;;5.80;4.57;;;;;;;-146.25;100.00;57403.91;4995474;28;20213;-86
2023/12/01 09:25:44;;;;;;;4.43;4.10;;;;;;;-146.25;100.00;57403.91;4995805;28;20793;-89
2023/12/01 09:28:14;;;;;;;7.03;4.77;;;;;;;-146.25;100.00;57403.91;4995921;28;20214;-87
2023/12/01 09:30:45;;;;;;;4.57;4.23;;;;;;;-146.25;100.00;57403.91;4994788;28;20606;-88
2023/12/01 09:33:13;;;;;;;7.47;4.63;;;;;;;-146.25;100.00;57403.91;4993805;28;20198;-87
2023/12/01 09:35:41;;;;;;;8.40;6.23;;;;;;;-146.25;100.00;57403.91;4993695;28;20191;-85
2023/12/01 09:38:18;;;;;;;7.53;5.27;;;;;;;-146.25;100.00;57403.91;4994048;28;20229;-87
2023/12/01 09:40:47;;;;;;;8.70;6.10;;;;;;;-146.25;100.00;57403.91;4993295;28;20240;-87
2023/12/01 09:43:21;;;;;;;6.67;5.00;;;;;;;-146.25;100.00;57403.91;4993100;28;20353;-87
2023/12/01 09:45:56;;;;;;;6.37;5.40;;;;;;;-146.25;100.00;57403.91;4993226;28;20194;-87
2023/12/01 09:48:24;;;;;;;11.40;6.57;;;;;;;-146.25;100.00;57403.91;4993730;28;20653;-86
2023/12/01 09:50:53;;;;;;;15.77;6.80;;;;;;;-146.25;100.00;57403.91;4992931;28;20230;-86
2023/12/01 09:53:29;;;;;;;10.70;5.63;;;;;;;-146.25;100.00;57403.91;4993821;28;20198;-86
2023/12/01 09:55:58;;;;;;;12.97;6.80;;;;;;;-146.25;100.00;57403.91;4993596;28;20198;-86
2023/12/01 09:58:28;;;;;;;9.30;4.60;;;;;;;-146.25;100.00;57403.91;4991748;28;20189;-87
2023/12/01 10:01:00;;;;;;;4.60;4.10;;;;;;;-146.25;100.00;57403.91;4996034;28;20199;-88
2023/12/01 10:03:29;;;;;;;5.33;3.53;;;;;;;-146.25;100.00;57403.91;4997368;28;20280;-87
2023/12/01 10:05:59;;;;;;;7.73;5.80;;;;;;;-146.25;100.00;57403.91;4997284;28;20190;-87
2023/12/01 10:08:27;;;;;;;7.37;5.67;;;;;;;-146.25;100.00;57403.91;4995830;28;20211;-87
2023/12/01 10:10:58;;;;;;;7.90;4.77;;;;;;;-146.25;100.00;57403.91;4996862;28;20223;-87
2023/12/01 10:13:40;;;;;;;5.93;3.67;;;;;;;-146.25;100.00;57403.91;4996945;28;20647;-87
2023/12/01 10:16:09;;;;;;;2.83;2.63;;;;;;;-146.25;100.00;57403.91;4998360;28;20201;-86
2023/12/01 10:18:37;;;;;;;3.00;2.53;;;;;;;-146.25;100.00;57403.91;4997896;28;20241;-86
2023/12/01 10:21:07;;;;;;;2.93;2.73;;;;;;;-146.25;100.00;57403.91;4997085;28;20206;-87
2023/12/01 10:23:37;;;;;;;3.73;2.80;;;;;;;-146.25;100.00;57403.91;4997729;28;20288;-88
2023/12/01 10:26:06;;;;;;;2.70;2.50;;;;;;;-146.25;100.00;57403.91;4997753;28;20215;-86
2023/12/01 10:28:43;;;;;;;4.47;3.00;;;;;;;-146.25;100.00;57403.91;4996821;28;20217;-86
2023/12/01 10:31:17;;;;;;;4.45;3.15;;;;;;;-146.25;100.00;57403.91;4997432;28;20815;-87
2023/12/01 10:33:49;;;;;;;2.03;1.85;;;;;;;-146.25;100.00;57403.91;4997390;28;20234;-85
2023/12/01 10:39:07;;;;;;;3.50;2.30;;;;;;;-146.25;100.00;57403.91;4992644;28;20224;-86
2023/12/01 10:41:36;;;;;;;4.50;2.40;;;;;;;-146.25;100.00;57403.91;4996023;28;20262;-86
2023/12/01 10:44:04;;;;;;;2.20;1.67;;;;;;;-146.25;100.00;57403.91;4996000;28;20226;-87
2023/12/01 10:46:36;;;;;;;2.15;2.05;;;;;;;-146.25;100.00;57403.91;4997070;28;20203;-86
2023/12/01 10:49:08;;;;;;;2.83;1.92;;;;;;;-146.25;100.00;57403.91;4996811;28;20223;-87
2023/12/01 10:51:41;;;;;;;3.85;3.13;;;;;;;-146.25;100.00;57403.91;4996736;28;20246;-87
2023/12/01 10:54:11;;;;;;;3.00;2.58;;;;;;;-146.25;100.00;57403.91;4996045;28;20290;-86
2023/12/01 10:56:54;;;;;;;5.25;3.58;;;;;;;-146.25;100.00;57403.91;4996747;28;20209;-87
2023/12/01 10:59:26;;;;;;;2.88;2.67;;;;;;;-146.25;100.00;57403.91;4996279;28;20201;-86
2023/12/01 11:02:02;;;;;;;4.32;3.20;;;;;;;-146.25;100.00;57403.91;4997356;28;20201;-86
2023/12/01 11:04:34;;;;;;;6.43;3.30;;;;;;;-146.25;100.00;57403.91;4996620;28;20240;-87
2023/12/01 11:07:25;;;;;;;3.28;3.00;;;;;;;-146.25;100.00;57403.91;4997112;28;20287;-88
2023/12/01 11:10:06;;;;;;;7.10;3.38;;;;;;;-146.25;100.00;57403.91;4996814;28;20212;-86
2023/12/01 11:12:50;;;;;;;4.15;3.80;;;;;;;-146.25;100.00;57403.91;4995502;28;20252;-86
2023/12/01 11:15:42;;;;;;;7.47;2.97;;;;;;;-146.25;100.00;57403.91;4999378;28;20628;-86
2023/12/01 11:18:24;;;;;;;7.50;2.90;;;;;;;-146.25;100.00;57403.91;5000764;28;20233;-86
2023/12/01 11:21:04;;;;;;;4.85;3.85;;;;;;;-146.25;100.00;57403.91;5015764;28;20200;-86
2023/12/01 11:23:38;;;;;;;4.22;3.60;;;;;;;-146.25;100.00;57403.91;5003563;28;20643;-86
2023/12/01 11:26:28;;;;;;;5.93;4.15;;;;;;;-146.25;100.00;57403.91;4998721;28;20206;-88